createdAt,value
2022-10-05T00:02:37.238Z,12.07
2022-10-05T00:05:40.214Z,10.73
2022-10-05T00:08:43.192Z,10.03
2022-10-05T00:11:46.264Z,10.98
2022-10-05T00:14:50.933Z,10.25
2022-10-05T00:17:53.860Z,9.00
2022-10-05T00:20:56.761Z,8.50
2022-10-05T00:23:59.703Z,9.17
2022-10-05T00:27:23.224Z,8.32
2022-10-05T00:30:30.929Z,9.32
2022-10-05T00:33:33.902Z,11.38
2022-10-05T00:36:38.023Z,10.68
2022-10-05T00:39:41.095Z,10.10
2022-10-05T00:43:23.886Z,14.05
2022-10-05T00:46:46.317Z,15.85
2022-10-05T00:50:13.651Z,15.60
2022-10-05T00:53:39.419Z,14.30
2022-10-05T00:57:01.159Z,15.23
2022-10-05T01:00:12.957Z,19.17
2022-10-05T01:03:26.034Z,16.27
2022-10-05T01:06:44.805Z,10.68
2022-10-05T01:09:59.318Z,10.18
2022-10-05T01:13:22.753Z,11.43
2022-10-05T01:16:31.619Z,12.35
2022-10-05T01:20:03.639Z,10.32
2022-10-05T01:23:11.676Z,11.65
2022-10-05T01:26:38.753Z,13.48
2022-10-05T01:29:47.581Z,15.53
2022-10-05T01:33:19.090Z,11.27
2022-10-05T01:36:33.140Z,10.45
2022-10-05T01:39:39.140Z,10.50
2022-10-05T01:42:57.122Z,11.38
2022-10-05T01:46:30.601Z,10.47
2022-10-05T01:49:59.686Z,9.13
2022-10-05T01:53:07.321Z,10.63
2022-10-05T01:56:38.800Z,10.02
2022-10-05T01:59:58.050Z,7.05
2022-10-05T02:03:04.116Z,10.50
2022-10-05T02:06:23.900Z,8.75
2022-10-05T02:09:32.200Z,8.93
2022-10-05T02:12:36.677Z,8.18
2022-10-05T02:15:46.651Z,9.80
2022-10-05T02:18:59.173Z,8.90
2022-10-05T02:22:07.645Z,13.57
2022-10-05T02:25:22.458Z,9.73
2022-10-05T02:28:43.185Z,8.35
2022-10-05T02:31:50.616Z,8.48
2022-10-05T02:34:53.610Z,12.80
2022-10-05T02:38:09.478Z,11.85
2022-10-05T02:41:15.186Z,13.00
2022-10-05T02:44:32.644Z,12.60
2022-10-05T02:48:05.903Z,11.85
2022-10-05T02:51:21.864Z,13.13
2022-10-05T02:54:52.262Z,13.93
2022-10-05T02:58:16.453Z,10.85
2022-10-05T03:01:31.199Z,12.27
2022-10-05T03:04:52.097Z,11.98
2022-10-05T03:08:19.854Z,11.00
2022-10-05T03:11:42.696Z,9.73
2022-10-05T03:15:17.499Z,9.52
2022-10-05T03:18:46.216Z,10.73
2022-10-05T03:21:56.744Z,12.00
2022-10-05T03:25:22.118Z,14.50
2022-10-05T03:28:48.336Z,14.85
2022-10-05T03:32:06.468Z,15.55
2022-10-05T03:35:28.871Z,18.20
2022-10-05T03:38:37.967Z,16.38
2022-10-05T03:41:42.706Z,15.67
2022-10-05T03:44:51.564Z,18.17
2022-10-05T03:48:09.723Z,16.33
2022-10-05T03:51:31.970Z,18.80
2022-10-05T03:55:02.886Z,15.35
2022-10-05T03:58:17.369Z,16.17
2022-10-05T04:01:25.986Z,16.42
2022-10-05T04:04:37.462Z,16.30
2022-10-05T04:07:57.473Z,14.15
2022-10-05T04:11:02.856Z,14.30
2022-10-05T04:14:09.266Z,13.60
2022-10-05T04:17:30.283Z,16.83
2022-10-05T04:20:42.926Z,15.93
2022-10-05T04:23:52.228Z,12.80
2022-10-05T04:26:57.568Z,15.98
2022-10-05T04:30:03.144Z,15.37
2022-10-05T04:33:12.650Z,13.68
2022-10-05T04:36:26.821Z,16.02
2022-10-05T04:39:45.880Z,14.25
2022-10-05T04:43:03.309Z,12.57
2022-10-05T04:46:09.564Z,13.93
2022-10-05T04:49:46.584Z,16.63
2022-10-05T04:53:16.944Z,22.33
2022-10-05T04:56:25.186Z,17.63
2022-10-05T04:59:49.669Z,16.25
2022-10-05T05:03:30.018Z,18.03
2022-10-05T05:06:44.091Z,11.50
2022-10-05T05:09:59.006Z,18.65
2022-10-05T05:13:20.845Z,14.05
2022-10-05T05:16:36.372Z,14.35
2022-10-05T05:19:42.780Z,23.07
2022-10-05T05:23:14.531Z,18.30
2022-10-05T05:26:26.673Z,21.02
2022-10-05T05:30:23.737Z,15.55
2022-10-05T05:33:44.133Z,15.30
2022-10-05T05:37:20.597Z,12.57
2022-10-05T05:40:24.765Z,12.38
2022-10-05T05:43:37.913Z,13.15
2022-10-05T05:47:07.357Z,19.23
2022-10-05T05:50:30.353Z,17.98
2022-10-05T05:53:45.585Z,18.50
2022-10-05T05:57:13.952Z,15.98
2022-10-05T06:00:21.579Z,15.38
2022-10-05T06:03:39.301Z,20.63
2022-10-05T06:06:49.456Z,18.50
2022-10-05T06:09:59.295Z,15.27
2022-10-05T06:13:42.545Z,14.85
2022-10-05T06:16:53.753Z,15.02
2022-10-05T06:20:02.468Z,13.02
2022-10-05T06:23:14.388Z,12.55
2022-10-05T06:26:52.349Z,15.23
2022-10-05T06:30:14.083Z,12.15
2022-10-05T06:33:27.408Z,12.77
2022-10-05T06:36:42.256Z,10.40
2022-10-05T06:40:21.427Z,10.15
2022-10-05T06:43:33.643Z,10.13
2022-10-05T06:46:59.145Z,12.20
2022-10-05T06:50:32.420Z,10.50
2022-10-05T06:54:23.108Z,12.25
2022-10-05T06:57:49.042Z,9.68
2022-10-05T07:01:00.812Z,9.43
2022-10-05T07:04:22.868Z,13.52
2022-10-05T07:07:32.122Z,11.55
2022-10-05T07:11:23.393Z,11.18
2022-10-05T07:14:58.787Z,12.70
2022-10-05T07:18:19.270Z,11.37
2022-10-05T07:21:45.662Z,11.45
2022-10-05T07:25:00.181Z,10.45
2022-10-05T07:28:30.320Z,12.63
2022-10-05T07:31:35.197Z,9.95
2022-10-05T07:35:30.671Z,11.67
2022-10-05T07:38:49.251Z,9.75
2022-10-05T07:42:01.515Z,9.82
2022-10-05T07:45:36.338Z,9.82
2022-10-05T07:48:57.950Z,16.60
2022-10-05T07:52:09.668Z,10.13
2022-10-05T07:55:17.829Z,9.43
2022-10-05T07:58:27.600Z,10.85
2022-10-05T08:01:39.183Z,10.25
2022-10-05T08:04:57.774Z,9.32
2022-10-05T08:08:28.553Z,11.47
2022-10-05T08:11:41.873Z,9.98
2022-10-05T08:15:07.755Z,12.85
2022-10-05T08:18:38.740Z,10.70
2022-10-05T08:21:48.259Z,9.95
2022-10-05T08:25:09.936Z,11.10
2022-10-05T08:28:28.239Z,12.05
2022-10-05T08:31:35.529Z,17.00
2022-10-05T08:35:11.176Z,11.82
2022-10-05T08:38:19.172Z,9.63
2022-10-05T08:41:31.214Z,11.23
2022-10-05T08:44:56.533Z,11.02
2022-10-05T08:48:05.922Z,11.23
2022-10-05T08:51:37.375Z,12.35
2022-10-05T08:54:46.674Z,11.65
2022-10-05T08:58:03.362Z,11.57
2022-10-05T09:01:09.148Z,13.30
2022-10-05T09:04:28.236Z,11.88
2022-10-05T09:08:00.674Z,10.75
2022-10-05T09:11:13.542Z,10.52
2022-10-05T09:14:31.282Z,13.90
2022-10-05T09:18:06.145Z,11.00
2022-10-05T09:21:29.668Z,10.75
2022-10-05T09:25:18.027Z,8.13
2022-10-05T09:28:54.678Z,10.95
2022-10-05T09:32:05.425Z,11.40
2022-10-05T09:35:27.165Z,10.32
2022-10-05T09:38:48.255Z,11.02
2022-10-05T09:41:57.146Z,12.65
2022-10-05T09:45:12.310Z,12.55
2022-10-05T09:48:18.244Z,11.63
2022-10-05T09:51:42.886Z,12.82
2022-10-05T09:55:01.309Z,14.05
2022-10-05T09:58:33.690Z,11.80
2022-10-05T10:01:47.977Z,13.07
2022-10-05T10:05:05.777Z,10.20
2022-10-05T10:08:26.766Z,11.43
2022-10-05T10:11:58.552Z,12.98
2022-10-05T10:15:29.480Z,13.65
2022-10-05T10:18:59.584Z,12.10
2022-10-05T10:22:17.465Z,11.30
2022-10-05T10:25:42.151Z,9.63
2022-10-05T10:29:17.696Z,11.65
2022-10-05T10:32:58.690Z,9.48
2022-10-05T10:36:23.190Z,11.57
2022-10-05T10:39:51.099Z,12.60
2022-10-05T10:43:14.301Z,9.10
2022-10-05T10:46:46.673Z,9.35
2022-10-05T10:50:15.734Z,9.05
2022-10-05T10:53:40.028Z,10.18
2022-10-05T10:56:45.736Z,9.20
2022-10-05T11:00:16.382Z,10.50
2022-10-05T11:03:48.989Z,9.45
2022-10-05T11:06:55.029Z,9.88
2022-10-05T11:10:15.480Z,8.85
2022-10-05T11:14:02.802Z,9.20
2022-10-05T11:17:31.674Z,9.75
2022-10-05T11:21:11.504Z,11.73
2022-10-05T11:24:40.125Z,8.63
2022-10-05T11:28:19.826Z,12.02
2022-10-05T11:31:43.811Z,11.60
2022-10-05T11:35:11.008Z,13.13
2022-10-05T11:38:59.040Z,11.18
2022-10-05T11:42:44.178Z,10.40
2022-10-05T11:46:24.728Z,10.80
2022-10-05T11:49:39.587Z,9.87
2022-10-05T11:53:01.246Z,10.65
2022-10-05T11:56:04.213Z,11.27
2022-10-05T11:59:16.153Z,11.93
2022-10-05T12:02:22.053Z,13.38
2022-10-05T12:05:28.154Z,9.73
2022-10-05T12:08:42.726Z,11.63
2022-10-05T12:11:48.487Z,10.02
2022-10-05T12:15:03.055Z,14.43
2022-10-05T12:18:13.540Z,13.98
2022-10-05T12:21:36.739Z,10.60
2022-10-05T12:24:39.627Z,12.02
2022-10-05T12:27:46.370Z,13.40
2022-10-05T12:30:58.583Z,13.40
2022-10-05T12:34:16.665Z,16.73
2022-10-05T12:37:28.955Z,13.60
2022-10-05T12:40:34.661Z,11.85
2022-10-05T12:43:43.147Z,13.40
2022-10-05T12:47:12.763Z,13.60
2022-10-05T12:50:28.367Z,11.15
2022-10-05T12:53:50.165Z,14.37
2022-10-05T12:57:02.016Z,15.48
2022-10-05T13:00:21.772Z,13.57
2022-10-05T13:03:28.947Z,11.35
2022-10-05T13:06:41.469Z,10.95
2022-10-05T13:10:00.765Z,18.33
2022-10-05T13:13:25.617Z,15.15
2022-10-05T13:16:49.147Z,13.75
2022-10-05T13:19:57.565Z,18.80
2022-10-05T13:23:11.543Z,15.13
2022-10-05T13:26:16.794Z,14.33
2022-10-05T13:29:58.714Z,14.38
2022-10-05T13:33:14.337Z,11.38
2022-10-05T13:36:46.699Z,14.13
2022-10-05T13:40:01.103Z,12.30
2022-10-05T13:43:14.960Z,13.67
2022-10-05T13:46:29.907Z,12.25
2022-10-05T13:49:44.659Z,13.57
2022-10-05T13:52:56.383Z,12.68
2022-10-05T13:56:00.878Z,13.02
2022-10-05T13:59:24.100Z,10.90
2022-10-05T14:02:31.249Z,8.82
2022-10-05T14:05:34.203Z,9.38
2022-10-05T14:08:46.494Z,9.80
2022-10-05T14:12:22.251Z,8.63
2022-10-05T14:15:39.813Z,11.67
2022-10-05T14:19:05.198Z,10.00
2022-10-05T14:22:22.191Z,10.38
2022-10-05T14:25:25.095Z,13.13
2022-10-05T14:28:29.975Z,12.35
2022-10-05T14:31:36.912Z,10.43
2022-10-05T14:34:45.021Z,11.23
2022-10-05T14:37:53.616Z,11.07
2022-10-05T14:41:08.464Z,11.00
2022-10-05T14:44:14.501Z,8.38
2022-10-05T14:47:20.433Z,9.43
2022-10-05T14:50:29.433Z,9.00
2022-10-05T14:53:46.280Z,9.05
2022-10-05T14:56:54.632Z,11.90
2022-10-05T15:00:00.645Z,8.82
2022-10-05T15:03:18.081Z,10.07
2022-10-05T15:06:34.795Z,8.10
2022-10-05T15:09:41.733Z,8.88
2022-10-05T15:12:48.988Z,10.98
2022-10-05T15:15:53.957Z,13.98
2022-10-05T15:19:16.025Z,15.27
2022-10-05T15:22:27.718Z,11.80
2022-10-05T15:25:40.461Z,13.77
2022-10-05T15:28:48.630Z,12.88
2022-10-05T15:31:54.438Z,9.07
2022-10-05T15:35:32.080Z,10.20
2022-10-05T15:38:45.169Z,10.02
2022-10-05T15:41:52.879Z,8.30
2022-10-05T15:45:23.547Z,8.50
2022-10-05T15:48:35.950Z,7.82
2022-10-05T15:51:47.735Z,8.83
2022-10-05T15:55:02.761Z,16.15
2022-10-05T15:58:24.719Z,13.48
2022-10-05T16:01:34.149Z,12.82
2022-10-05T16:04:52.449Z,13.32
2022-10-05T16:08:13.597Z,18.27
2022-10-05T16:11:38.354Z,12.27
2022-10-05T16:15:06.511Z,11.40
2022-10-05T16:18:26.861Z,13.35
2022-10-05T16:21:51.629Z,14.93
2022-10-05T16:25:05.117Z,10.90
2022-10-05T16:28:20.268Z,17.38
2022-10-05T16:31:31.086Z,12.60
2022-10-05T16:35:02.382Z,19.75
2022-10-05T16:38:35.538Z,19.95
2022-10-05T16:41:55.836Z,24.07
2022-10-05T16:45:21.844Z,33.83
2022-10-05T16:48:43.353Z,16.92
2022-10-05T16:52:08.467Z,16.52
2022-10-05T16:55:33.326Z,24.00
2022-10-05T16:58:56.349Z,31.17
2022-10-05T17:02:11.588Z,27.15
2022-10-05T17:05:56.003Z,29.08
2022-10-05T17:09:24.891Z,25.30
2022-10-05T17:12:38.871Z,30.85
2022-10-05T17:16:04.189Z,25.57
2022-10-05T17:19:25.336Z,31.73
2022-10-05T17:22:59.189Z,35.65
2022-10-05T17:26:33.591Z,43.92
2022-10-05T17:29:55.489Z,48.05
2022-10-05T17:33:22.709Z,29.83
2022-10-05T17:36:48.640Z,28.30
2022-10-05T17:39:52.899Z,28.00
2022-10-05T17:43:16.924Z,26.15
2022-10-05T17:46:38.591Z,28.83
2022-10-05T17:50:11.895Z,32.67
2022-10-05T17:53:41.238Z,31.20
2022-10-05T17:56:58.858Z,28.25
2022-10-05T18:00:20.653Z,31.73
2022-10-05T18:03:49.519Z,30.00
2022-10-05T18:07:07.463Z,28.10
2022-10-05T18:10:11.658Z,27.92
2022-10-05T18:13:35.731Z,32.08
2022-10-05T18:17:03.744Z,27.33
2022-10-05T18:20:26.466Z,28.88
2022-10-05T18:23:35.758Z,35.67
2022-10-05T18:26:53.557Z,37.42
2022-10-05T18:30:18.380Z,37.80
2022-10-05T18:33:27.188Z,40.08
2022-10-05T18:36:57.884Z,36.88
2022-10-05T18:40:21.315Z,34.77
2022-10-05T18:43:38.105Z,29.77
2022-10-05T18:47:45.132Z,25.05
2022-10-05T18:50:58.471Z,32.35
2022-10-05T18:54:25.944Z,27.95
2022-10-05T18:57:53.539Z,29.67
2022-10-05T19:01:19.584Z,22.15
2022-10-05T19:04:42.379Z,28.73
2022-10-05T19:07:48.071Z,25.80
2022-10-05T19:11:11.903Z,26.08
2022-10-05T19:14:27.759Z,27.63
2022-10-05T19:17:44.225Z,29.05
2022-10-05T19:21:02.129Z,29.30
2022-10-05T19:24:27.731Z,24.55
2022-10-05T19:28:19.204Z,28.40
2022-10-05T19:31:30.639Z,61.70
2022-10-05T19:34:48.918Z,67.57
2022-10-05T19:38:21.128Z,60.08
2022-10-05T19:41:42.787Z,65.20
2022-10-05T19:45:02.762Z,56.05
2022-10-05T19:48:26.230Z,55.03
2022-10-05T19:51:30.983Z,53.90
2022-10-05T19:54:33.881Z,46.28
2022-10-05T19:57:38.158Z,45.65
2022-10-05T20:00:42.361Z,54.17
2022-10-05T20:03:45.263Z,51.30
2022-10-05T20:06:48.288Z,49.97
2022-10-05T20:09:58.137Z,44.28
2022-10-05T20:13:02.127Z,44.78
2022-10-05T20:16:47.609Z,24.20
2022-10-05T20:19:53.546Z,34.10
2022-10-05T20:23:19.953Z,31.50
2022-10-05T20:27:01.605Z,32.92
2022-10-05T20:30:05.669Z,90.15
2022-10-05T20:33:14.593Z,52.17
2022-10-05T20:36:17.493Z,47.17
2022-10-05T20:39:21.384Z,32.90
2022-10-05T20:42:24.396Z,26.30
2022-10-05T20:45:27.295Z,26.27
2022-10-05T20:48:30.717Z,23.27
2022-10-05T20:51:33.843Z,21.33
2022-10-05T20:54:37.583Z,23.05
2022-10-05T20:57:43.390Z,26.92
2022-10-05T21:01:05.070Z,26.98
2022-10-05T21:04:09.571Z,33.45
2022-10-05T21:07:12.454Z,29.70
2022-10-05T21:10:15.376Z,23.77
2022-10-05T21:13:18.451Z,22.35
2022-10-05T21:16:21.515Z,20.05
2022-10-05T21:19:26.822Z,19.70
2022-10-05T21:22:29.736Z,19.47
2022-10-05T21:25:33.783Z,20.15
2022-10-05T21:28:36.728Z,21.00
2022-10-05T21:31:39.898Z,16.98
2022-10-05T21:34:42.876Z,18.67
2022-10-05T21:37:45.780Z,17.70
2022-10-05T21:40:48.657Z,19.58
2022-10-05T21:43:51.597Z,21.75
2022-10-05T21:46:55.144Z,18.85
2022-10-05T21:49:59.852Z,16.70
2022-10-05T21:53:03.766Z,17.63
2022-10-05T21:56:09.029Z,17.38
2022-10-05T21:59:13.404Z,16.55
2022-10-05T22:02:16.359Z,18.48
2022-10-05T22:05:19.285Z,18.15
2022-10-05T22:08:30.271Z,17.23
2022-10-05T22:11:33.626Z,20.23
2022-10-05T22:14:36.555Z,18.20
2022-10-05T22:17:40.253Z,20.17
2022-10-05T22:20:43.373Z,20.67
2022-10-05T22:23:46.500Z,24.17
2022-10-05T22:26:51.447Z,24.13
2022-10-05T22:29:54.558Z,20.48
2022-10-05T22:32:57.466Z,21.60
2022-10-05T22:36:00.535Z,24.17
2022-10-05T22:39:03.639Z,24.27
2022-10-05T22:42:06.951Z,23.50
2022-10-05T22:45:09.918Z,17.20
2022-10-05T22:48:12.928Z,18.70
2022-10-05T22:51:15.832Z,17.20
2022-10-05T22:54:18.745Z,15.43
2022-10-05T22:57:21.632Z,15.20
2022-10-05T23:00:35.115Z,15.77
2022-10-05T23:03:48.694Z,14.98
2022-10-05T23:06:51.799Z,14.95
2022-10-05T23:09:54.678Z,18.47
2022-10-05T23:13:00.851Z,14.00
2022-10-05T23:16:14.661Z,17.45
2022-10-05T23:19:17.672Z,16.08
2022-10-05T23:22:21.518Z,14.63
2022-10-05T23:25:25.606Z,14.37
2022-10-05T23:28:29.174Z,12.50
2022-10-05T23:31:33.611Z,16.70
2022-10-05T23:34:36.574Z,15.45
2022-10-05T23:37:43.414Z,14.70
2022-10-05T23:40:47.588Z,16.37
2022-10-05T23:43:50.571Z,14.30
2022-10-05T23:46:53.468Z,15.90
2022-10-05T23:49:56.452Z,14.38
2022-10-05T23:52:59.345Z,16.92
2022-10-05T23:56:02.292Z,14.53
2022-10-05T23:59:05.152Z,16.52
